createdAt,value
2017-08-21T00:00:11.591Z,9.4
2017-08-21T00:01:13.256Z,9.9
2017-08-21T00:02:14.913Z,10.1
2017-08-21T00:03:16.572Z,9.7
2017-08-21T00:04:18.224Z,9.5
2017-08-21T00:05:19.877Z,9.4
2017-08-21T00:06:21.560Z,9.3
2017-08-21T00:07:23.202Z,8.7
2017-08-21T00:08:24.856Z,10.3
2017-08-21T00:09:26.508Z,9.6
2017-08-21T00:10:28.164Z,9.4
2017-08-21T00:11:29.821Z,9.7
2017-08-21T00:12:31.489Z,9.2
2017-08-21T00:13:33.126Z,9.9
2017-08-21T00:14:34.794Z,9.1
2017-08-21T00:15:36.447Z,9.4
2017-08-21T00:16:38.106Z,9.3
2017-08-21T00:17:39.793Z,9.2
2017-08-21T00:18:41.428Z,9.5
2017-08-21T00:19:43.083Z,9.7
2017-08-21T00:20:44.749Z,9.1
2017-08-21T00:21:46.402Z,9.9
2017-08-21T00:22:48.057Z,9.9
2017-08-21T00:23:49.724Z,9.2
2017-08-21T00:24:51.384Z,8.7
2017-08-21T00:25:53.040Z,9.3
2017-08-21T00:26:54.731Z,9.7
2017-08-21T00:27:56.370Z,9.0
2017-08-21T00:28:58.040Z,9.8
2017-08-21T00:29:59.694Z,9.1
2017-08-21T00:31:01.354Z,9.1
2017-08-21T00:32:03.011Z,9.9
2017-08-21T00:33:04.670Z,9.3
2017-08-21T00:34:06.325Z,9.9
2017-08-21T00:35:07.994Z,9.7
2017-08-21T00:36:09.657Z,10.9
2017-08-21T00:37:11.313Z,9.2
2017-08-21T00:38:12.965Z,9.2
2017-08-21T00:39:14.637Z,9.1
2017-08-21T00:40:16.286Z,9.3
2017-08-21T00:41:17.937Z,9.2
2017-08-21T00:42:19.609Z,9.3
2017-08-21T00:43:21.261Z,10.1
2017-08-21T00:44:22.922Z,8.9
2017-08-21T00:45:24.574Z,9.9
2017-08-21T00:46:26.245Z,9.3
2017-08-21T00:47:27.892Z,9.4
2017-08-21T00:48:29.552Z,9.4
2017-08-21T00:49:31.212Z,9.4
2017-08-21T00:50:32.875Z,8.8
2017-08-21T00:51:34.532Z,8.1
2017-08-21T00:52:36.179Z,9.0
2017-08-21T00:53:37.838Z,9.4
2017-08-21T00:54:39.518Z,9.0
2017-08-21T00:55:41.174Z,9.6
2017-08-21T00:56:42.845Z,9.2
2017-08-21T00:57:44.500Z,8.7
2017-08-21T00:58:46.161Z,9.4
2017-08-21T00:59:47.815Z,8.8
2017-08-21T01:00:49.473Z,9.3
2017-08-21T01:01:51.125Z,9.6
2017-08-21T01:02:52.772Z,8.9
2017-08-21T01:03:54.434Z,8.8
2017-08-21T01:04:56.094Z,9.7
2017-08-21T01:05:57.748Z,9.2
2017-08-21T01:06:59.402Z,8.7
2017-08-21T01:08:01.061Z,9.7
2017-08-21T01:09:02.724Z,10.4
2017-08-21T01:10:04.392Z,10.6
2017-08-21T01:11:06.050Z,9.7
2017-08-21T01:12:07.698Z,9.9
2017-08-21T01:13:09.358Z,9.1
2017-08-21T01:14:11.012Z,9.0
2017-08-21T01:15:12.667Z,9.0
2017-08-21T01:16:14.318Z,8.8
2017-08-21T01:17:15.978Z,9.2
2017-08-21T01:18:17.638Z,9.0
2017-08-21T01:19:19.297Z,9.8
2017-08-21T01:20:20.963Z,9.0
2017-08-21T01:21:22.619Z,9.3
2017-08-21T01:22:24.280Z,8.8
2017-08-21T01:23:25.943Z,8.8
2017-08-21T01:24:27.588Z,8.6
2017-08-21T01:25:29.255Z,9.1
2017-08-21T01:26:30.901Z,9.3
2017-08-21T01:27:32.558Z,9.6
2017-08-21T01:28:34.201Z,9.1
2017-08-21T01:29:35.863Z,9.3
2017-08-21T01:30:37.516Z,9.3
2017-08-21T01:31:39.168Z,9.4
2017-08-21T01:32:40.823Z,9.1
2017-08-21T01:33:42.483Z,8.8
2017-08-21T01:34:44.141Z,8.4
2017-08-21T01:35:45.795Z,9.2
2017-08-21T01:36:47.449Z,9.2
2017-08-21T01:37:49.105Z,9.2
2017-08-21T01:38:50.765Z,8.8
2017-08-21T01:39:52.419Z,8.9
2017-08-21T01:40:54.074Z,8.8
2017-08-21T01:41:55.724Z,9.1
2017-08-21T01:42:57.384Z,8.6
2017-08-21T01:43:59.044Z,9.1
2017-08-21T01:45:00.727Z,9.0
2017-08-21T01:46:02.379Z,9.7
2017-08-21T01:47:04.046Z,9.5
2017-08-21T01:48:05.695Z,9.7
2017-08-21T01:49:07.361Z,9.0
2017-08-21T01:50:09.012Z,9.5
2017-08-21T01:51:10.665Z,8.7
2017-08-21T01:52:12.352Z,9.2
2017-08-21T01:53:13.985Z,8.9
2017-08-21T01:54:15.643Z,9.2
2017-08-21T01:55:17.303Z,9.5
2017-08-21T02:01:54.728Z,8.5
2017-08-21T02:02:56.382Z,9.5
2017-08-21T02:03:58.036Z,9.5
2017-08-21T02:04:59.692Z,10.5
2017-08-21T02:06:01.351Z,10.0
2017-08-21T02:07:03.014Z,10.0
2017-08-21T02:08:04.664Z,9.7
2017-08-21T02:09:06.321Z,10.1
2017-08-21T02:10:07.969Z,10.1
2017-08-21T02:11:09.625Z,10.4
2017-08-21T02:12:11.282Z,9.9
2017-08-21T02:13:12.931Z,10.2
2017-08-21T02:14:14.580Z,10.0
2017-08-21T02:15:16.262Z,9.8
2017-08-21T02:16:17.925Z,11.2
2017-08-21T02:17:19.622Z,10.4
2017-08-21T02:18:21.280Z,10.2
2017-08-21T02:19:22.943Z,10.1
2017-08-21T02:20:24.593Z,10.2
2017-08-21T02:21:26.251Z,10.4
2017-08-21T02:22:27.922Z,9.5
2017-08-21T02:23:29.581Z,10.1
2017-08-21T02:24:31.241Z,10.6
2017-08-21T02:25:32.907Z,10.9
2017-08-21T02:26:34.567Z,11.6
2017-08-21T02:27:36.235Z,11.4
2017-08-21T02:28:37.894Z,11.0
2017-08-21T02:29:39.554Z,10.9
2017-08-21T02:30:41.225Z,11.7
2017-08-21T02:31:42.876Z,11.2
2017-08-21T02:32:44.544Z,10.3
2017-08-21T02:33:46.205Z,10.6
2017-08-21T02:34:47.866Z,10.3
2017-08-21T02:35:49.517Z,10.0
2017-08-21T02:36:51.171Z,11.2
2017-08-21T02:37:52.835Z,11.6
2017-08-21T02:38:54.481Z,12.3
2017-08-21T02:39:56.146Z,11.1
2017-08-21T02:40:57.822Z,10.3
2017-08-21T02:41:59.475Z,10.9
2017-08-21T02:43:01.128Z,9.9
2017-08-21T02:44:02.789Z,10.1
2017-08-21T02:45:04.454Z,11.0
2017-08-21T02:46:06.117Z,11.4
2017-08-21T02:47:07.774Z,11.4
2017-08-21T02:48:09.427Z,11.3
2017-08-21T02:49:11.080Z,11.8
2017-08-21T02:50:12.747Z,12.3
2017-08-21T02:51:14.408Z,10.8
2017-08-21T02:52:16.071Z,10.9
2017-08-21T02:53:17.725Z,10.5
2017-08-21T02:54:19.382Z,10.4
2017-08-21T02:55:21.035Z,11.9
2017-08-21T02:56:22.689Z,11.4
2017-08-21T02:57:24.353Z,11.9
2017-08-21T02:58:26.011Z,11.0
2017-08-21T02:59:27.676Z,11.9
2017-08-21T03:00:29.338Z,11.6
2017-08-21T03:01:30.995Z,12.0
2017-08-21T03:02:32.660Z,11.6
2017-08-21T03:03:34.320Z,11.9
2017-08-21T03:04:36.001Z,11.4
2017-08-21T03:05:37.645Z,12.3
2017-08-21T03:06:39.300Z,11.8
2017-08-21T03:07:40.959Z,12.3
2017-08-21T03:08:42.621Z,11.9
2017-08-21T03:09:44.309Z,11.9
2017-08-21T03:10:45.950Z,13.2
2017-08-21T03:11:47.635Z,12.7
2017-08-21T03:12:49.295Z,12.7
2017-08-21T03:13:50.961Z,12.0
2017-08-21T03:14:52.708Z,11.9
2017-08-21T03:15:54.361Z,11.6
2017-08-21T03:16:56.017Z,12.7
2017-08-21T03:17:57.671Z,12.2
2017-08-21T03:18:59.331Z,10.9
2017-08-21T03:20:00.993Z,11.6
2017-08-21T03:21:02.652Z,12.4
2017-08-21T03:22:04.306Z,12.4
2017-08-21T03:23:05.964Z,12.1
2017-08-21T03:24:07.627Z,11.4
2017-08-21T03:25:09.278Z,11.8
2017-08-21T03:26:10.948Z,12.2
2017-08-21T03:27:12.608Z,11.9
2017-08-21T03:28:14.274Z,11.2
2017-08-21T03:29:15.927Z,11.0
2017-08-21T03:30:17.602Z,12.3
2017-08-21T03:31:19.248Z,13.0
2017-08-21T03:32:20.898Z,12.9
2017-08-21T03:33:22.573Z,12.5
2017-08-21T03:34:24.236Z,12.3
2017-08-21T03:35:25.892Z,12.2
2017-08-21T03:36:27.549Z,13.5
2017-08-21T03:37:29.216Z,13.1
2017-08-21T03:38:30.870Z,13.4
2017-08-21T03:39:32.541Z,13.2
2017-08-21T03:40:34.198Z,13.3
2017-08-21T03:41:35.858Z,13.1
2017-08-21T03:42:37.514Z,13.6
2017-08-21T03:43:39.177Z,13.0
2017-08-21T03:44:40.827Z,13.0
2017-08-21T03:45:42.484Z,12.1
2017-08-21T03:46:44.135Z,12.6
2017-08-21T03:47:45.797Z,13.2
2017-08-21T03:48:47.460Z,12.0
2017-08-21T03:49:49.114Z,11.7
2017-08-21T03:50:50.778Z,11.4
2017-08-21T03:51:52.425Z,11.1
2017-08-21T03:52:54.662Z,11.8
2017-08-21T03:53:56.321Z,11.8
2017-08-21T03:54:57.978Z,12.2
2017-08-21T03:55:59.637Z,11.4
2017-08-21T03:57:01.296Z,11.3
2017-08-21T03:58:02.954Z,11.3
2017-08-21T03:59:04.613Z,11.3
2017-08-21T04:00:06.280Z,10.8
2017-08-21T04:01:07.944Z,10.2
2017-08-21T04:02:09.604Z,11.0
2017-08-21T04:03:11.278Z,11.8
2017-08-21T04:04:12.935Z,11.5
2017-08-21T04:05:14.592Z,11.6
2017-08-21T04:06:16.260Z,12.0
2017-08-21T04:07:17.922Z,13.1
2017-08-21T04:08:19.583Z,13.5
2017-08-21T04:09:21.241Z,13.3
2017-08-21T04:10:22.893Z,14.8
2017-08-21T04:11:24.551Z,14.2
2017-08-21T04:12:26.212Z,14.2
2017-08-21T04:13:27.877Z,14.5
2017-08-21T04:14:29.536Z,14.0
2017-08-21T04:15:31.201Z,15.4
2017-08-21T04:16:32.864Z,14.3
2017-08-21T04:17:34.526Z,16.6
2017-08-21T04:18:36.202Z,17.3
2017-08-21T04:19:37.854Z,17.9
2017-08-21T04:20:39.518Z,19.8
2017-08-21T04:21:41.173Z,20.0
2017-08-21T04:22:42.827Z,19.4
2017-08-21T04:23:44.501Z,19.9
2017-08-21T04:24:46.166Z,24.1
2017-08-21T04:25:47.839Z,23.1
2017-08-21T04:26:49.623Z,22.2
2017-08-21T04:27:51.291Z,24.9
2017-08-21T04:28:52.953Z,23.0
2017-08-21T04:29:54.619Z,24.1
2017-08-21T04:30:56.282Z,26.8
2017-08-21T04:31:57.956Z,33.0
2017-08-21T04:32:59.621Z,31.5
2017-08-21T04:34:01.275Z,31.1
2017-08-21T04:35:02.944Z,30.6
2017-08-21T04:36:04.609Z,33.7
2017-08-21T04:37:06.277Z,27.3
2017-08-21T04:38:07.939Z,28.4
2017-08-21T04:39:09.614Z,34.2
2017-08-21T04:40:11.282Z,30.9
2017-08-21T04:41:12.940Z,29.9
2017-08-21T04:42:14.604Z,37.5
2017-08-21T04:43:16.271Z,30.0
2017-08-21T04:44:17.938Z,32.5
2017-08-21T04:45:19.618Z,41.2
2017-08-21T04:46:21.284Z,37.2
2017-08-21T04:47:22.943Z,32.3
2017-08-21T04:48:24.615Z,30.7
2017-08-21T04:49:26.280Z,31.5
2017-08-21T04:50:27.948Z,28.2
2017-08-21T04:51:29.612Z,29.7
2017-08-21T04:52:31.277Z,26.4
2017-08-21T04:53:32.942Z,25.0
2017-08-21T04:54:34.613Z,25.3
2017-08-21T04:55:36.276Z,26.9
2017-08-21T04:56:37.936Z,24.6
2017-08-21T04:57:39.597Z,21.7
2017-08-21T04:58:41.269Z,21.4
2017-08-21T04:59:42.934Z,21.2
2017-08-21T05:00:44.603Z,19.8
2017-08-21T05:01:46.270Z,20.4
2017-08-21T05:02:47.925Z,21.3
2017-08-21T05:03:49.595Z,19.9
2017-08-21T05:04:51.262Z,21.1
2017-08-21T05:05:52.934Z,22.1
2017-08-21T05:06:54.592Z,20.1
2017-08-21T05:07:56.252Z,28.7
2017-08-21T05:08:57.963Z,25.3
2017-08-21T05:09:59.625Z,29.3
2017-08-21T05:11:01.283Z,31.9
2017-08-21T05:12:02.956Z,29.5
2017-08-21T05:13:04.618Z,34.7
2017-08-21T05:14:06.292Z,27.1
2017-08-21T05:15:07.960Z,25.8
2017-08-21T05:16:09.628Z,30.4
2017-08-21T05:17:11.293Z,23.3
2017-08-21T05:18:12.958Z,28.1
2017-08-21T05:19:14.622Z,31.1
2017-08-21T05:20:16.330Z,39.3
2017-08-21T05:21:18.034Z,30.1
2017-08-21T05:22:19.695Z,28.8
2017-08-21T05:23:21.365Z,25.4
2017-08-21T05:24:23.028Z,27.8
2017-08-21T05:25:24.696Z,23.4
2017-08-21T05:26:26.358Z,19.9
2017-08-21T05:27:28.021Z,21.1
2017-08-21T05:28:29.685Z,20.8
2017-08-21T05:29:31.352Z,20.0
2017-08-21T05:30:33.020Z,20.6
2017-08-21T05:31:34.724Z,20.8
2017-08-21T05:32:36.384Z,27.4
2017-08-21T05:33:38.047Z,21.3
2017-08-21T05:34:39.710Z,21.8
2017-08-21T05:35:41.385Z,35.2
2017-08-21T05:36:43.043Z,30.9
2017-08-21T05:37:44.720Z,25.9
2017-08-21T05:38:46.386Z,30.6
2017-08-21T05:39:48.055Z,25.9
2017-08-21T05:40:49.723Z,24.7
2017-08-21T05:41:51.466Z,23.4
2017-08-21T05:42:53.141Z,23.5
2017-08-21T05:43:54.803Z,29.9
2017-08-21T05:44:56.468Z,21.4
2017-08-21T05:46:01.226Z,21.1
2017-08-21T05:47:02.886Z,21.7
2017-08-21T05:48:04.552Z,19.8
2017-08-21T05:49:06.209Z,19.6
2017-08-21T05:50:07.883Z,23.7
2017-08-21T05:51:10.020Z,27.7
2017-08-21T05:52:11.636Z,22.3
2017-08-21T05:53:13.350Z,26.8
2017-08-21T05:54:15.017Z,31.6
2017-08-21T05:55:16.681Z,22.9
2017-08-21T06:01:30.584Z,23.6
2017-08-21T06:02:32.249Z,22.2
2017-08-21T06:04:24.038Z,20.4
2017-08-21T06:05:25.693Z,21.9
2017-08-21T06:06:27.358Z,22.8
2017-08-21T06:07:29.033Z,18.1
2017-08-21T06:08:30.696Z,20.0
2017-08-21T06:09:32.363Z,16.8
2017-08-21T06:10:34.040Z,18.7
2017-08-21T06:11:35.730Z,17.9
2017-08-21T06:12:37.397Z,16.5
2017-08-21T06:13:39.053Z,16.7
2017-08-21T06:14:40.722Z,14.0
2017-08-21T06:15:42.386Z,14.1
2017-08-21T06:16:44.070Z,13.2
2017-08-21T06:17:45.739Z,12.9
2017-08-21T06:18:47.422Z,13.4
2017-08-21T06:19:49.075Z,15.0
2017-08-21T06:20:50.735Z,13.7
2017-08-21T06:21:52.404Z,15.6
2017-08-21T06:22:54.066Z,15.4
2017-08-21T06:23:55.742Z,14.5
2017-08-21T06:24:57.405Z,10.9
2017-08-21T06:25:59.075Z,12.5
2017-08-21T06:27:00.741Z,12.4
2017-08-21T06:28:02.411Z,13.2
2017-08-21T06:29:04.080Z,12.7
2017-08-21T06:30:05.749Z,12.3
2017-08-21T06:31:07.416Z,12.3
2017-08-21T06:32:09.072Z,12.0
2017-08-21T06:33:10.739Z,12.1
2017-08-21T06:34:12.412Z,11.8
2017-08-21T06:35:14.075Z,12.2
2017-08-21T06:36:15.747Z,12.0
2017-08-21T06:37:17.411Z,12.2
2017-08-21T06:38:19.112Z,12.6
2017-08-21T06:39:20.781Z,12.3
2017-08-21T06:40:22.447Z,11.4
2017-08-21T06:41:25.036Z,11.8
2017-08-21T06:42:26.702Z,11.0
2017-08-21T06:43:28.378Z,10.2
2017-08-21T06:44:30.049Z,9.6
2017-08-21T06:45:31.722Z,9.1
2017-08-21T06:46:33.387Z,9.1
2017-08-21T06:47:35.061Z,9.7
2017-08-21T06:48:36.753Z,10.1
2017-08-21T06:49:38.427Z,11.1
2017-08-21T06:50:40.111Z,9.7
2017-08-21T06:51:41.795Z,9.0
2017-08-21T06:52:43.465Z,9.6
2017-08-21T06:53:45.139Z,8.9
2017-08-21T06:54:46.812Z,9.0
2017-08-21T06:55:48.479Z,8.5
2017-08-21T06:56:50.136Z,8.3
2017-08-21T06:57:51.815Z,8.1
2017-08-21T06:58:53.488Z,7.6
2017-08-21T06:59:55.175Z,8.8
2017-08-21T07:00:56.844Z,8.0
2017-08-21T07:01:58.501Z,6.9
2017-08-21T07:03:00.175Z,6.9
2017-08-21T07:04:01.838Z,6.3
2017-08-21T07:05:03.504Z,6.6
2017-08-21T07:06:05.238Z,6.5
2017-08-21T07:07:06.902Z,6.3
2017-08-21T07:08:08.582Z,6.1
2017-08-21T07:09:10.257Z,6.4
2017-08-21T07:10:11.926Z,6.7
2017-08-21T07:11:13.588Z,6.3
2017-08-21T07:12:15.258Z,5.9
2017-08-21T07:13:16.933Z,6.7
2017-08-21T07:14:18.633Z,6.0
2017-08-21T07:15:20.303Z,6.7
2017-08-21T07:16:21.979Z,6.4
2017-08-21T07:17:23.648Z,7.2
2017-08-21T07:18:25.322Z,5.8
2017-08-21T07:19:27.013Z,6.3
2017-08-21T07:20:28.685Z,6.2
2017-08-21T07:21:30.351Z,7.2
2017-08-21T07:22:32.030Z,7.5
2017-08-21T07:23:33.701Z,6.5
2017-08-21T07:24:35.363Z,6.7
2017-08-21T07:25:37.046Z,6.2
2017-08-21T07:26:38.721Z,7.4
2017-08-21T07:27:40.395Z,6.3
2017-08-21T07:28:42.066Z,6.7
2017-08-21T07:29:43.738Z,5.8
2017-08-21T07:30:45.409Z,5.9
2017-08-21T07:31:47.075Z,6.7
2017-08-21T07:32:48.748Z,6.2
2017-08-21T07:33:50.418Z,6.2
2017-08-21T07:34:52.090Z,6.1
2017-08-21T07:35:53.763Z,5.7
2017-08-21T07:36:55.439Z,6.6
2017-08-21T07:37:57.119Z,6.2
2017-08-21T07:38:58.792Z,6.1
2017-08-21T07:40:00.467Z,6.6
2017-08-21T07:41:02.144Z,7.3
2017-08-21T07:42:03.817Z,6.6
2017-08-21T07:43:05.496Z,7.1
2017-08-21T07:44:07.168Z,7.9
2017-08-21T07:45:08.845Z,6.9
2017-08-21T07:46:10.518Z,6.9
2017-08-21T07:47:12.184Z,6.9
2017-08-21T07:48:13.861Z,6.1
2017-08-21T07:49:15.532Z,6.7
2017-08-21T07:50:17.222Z,7.0
2017-08-21T07:51:19.050Z,7.3
2017-08-21T07:52:20.540Z,6.6
2017-08-21T07:53:22.217Z,7.3
2017-08-21T07:54:23.888Z,7.9
2017-08-21T07:55:25.582Z,7.5
2017-08-21T07:56:27.257Z,7.0
2017-08-21T07:57:28.931Z,6.8
2017-08-21T07:58:30.605Z,6.5
2017-08-21T07:59:32.284Z,6.1
2017-08-21T08:00:33.960Z,6.1
2017-08-21T08:01:35.636Z,6.0
2017-08-21T08:02:37.303Z,6.0
2017-08-21T08:03:38.972Z,5.9
2017-08-21T08:04:40.647Z,6.7
2017-08-21T08:05:42.346Z,6.6
2017-08-21T08:06:44.024Z,6.4
2017-08-21T08:07:45.698Z,6.4
2017-08-21T08:08:47.385Z,6.0
2017-08-21T08:09:49.063Z,6.1
2017-08-21T08:10:50.738Z,5.7
2017-08-21T08:11:52.418Z,5.0
2017-08-21T08:12:54.104Z,4.5
2017-08-21T08:13:55.787Z,5.5
2017-08-21T08:14:57.474Z,5.4
2017-08-21T08:15:59.144Z,5.2
2017-08-21T08:17:00.844Z,5.3
2017-08-21T08:18:02.528Z,5.3
2017-08-21T08:19:04.201Z,5.1
2017-08-21T08:20:05.876Z,4.8
2017-08-21T08:21:07.560Z,4.9
2017-08-21T08:22:09.241Z,4.9
2017-08-21T08:23:10.926Z,4.7
2017-08-21T08:24:12.594Z,4.0
2017-08-21T08:25:14.304Z,4.4
2017-08-21T08:26:15.963Z,4.5
2017-08-21T08:27:17.735Z,4.5
2017-08-21T08:28:19.424Z,4.3
2017-08-21T08:29:21.101Z,4.3
2017-08-21T08:30:22.813Z,4.4
2017-08-21T08:31:24.495Z,4.0
2017-08-21T08:32:26.169Z,3.7
2017-08-21T08:33:27.841Z,3.9
2017-08-21T08:34:29.518Z,3.4
2017-08-21T08:35:31.217Z,3.1
2017-08-21T08:36:33.016Z,3.7
2017-08-21T08:37:34.693Z,3.5
2017-08-21T08:38:36.381Z,3.4
2017-08-21T08:39:38.063Z,3.5
2017-08-21T08:40:39.794Z,3.2
2017-08-21T08:41:41.467Z,3.0
2017-08-21T08:42:43.201Z,3.1
2017-08-21T08:43:44.877Z,2.3
2017-08-21T08:44:46.543Z,2.7
2017-08-21T08:45:48.227Z,2.4
2017-08-21T08:46:49.907Z,2.3
2017-08-21T08:47:51.593Z,2.6
2017-08-21T08:48:53.276Z,2.7
2017-08-21T08:49:54.947Z,2.6
2017-08-21T08:50:56.623Z,2.3
2017-08-21T08:51:58.297Z,2.4
2017-08-21T08:52:59.981Z,2.4
2017-08-21T08:54:01.650Z,2.2
2017-08-21T08:55:03.327Z,2.4
2017-08-21T08:56:05.008Z,2.4
2017-08-21T08:57:06.683Z,2.4
2017-08-21T08:58:08.355Z,2.4
2017-08-21T08:59:10.036Z,2.2
2017-08-21T09:00:11.710Z,2.1
2017-08-21T09:01:13.388Z,2.6
2017-08-21T09:02:15.063Z,2.6
2017-08-21T09:03:16.742Z,2.0
2017-08-21T09:04:18.432Z,2.2
2017-08-21T09:05:20.119Z,1.9
2017-08-21T09:06:21.805Z,2.2
2017-08-21T09:07:23.471Z,2.0
2017-08-21T09:08:25.148Z,2.3
2017-08-21T09:09:26.834Z,2.2
2017-08-21T09:10:28.518Z,2.0
2017-08-21T09:11:30.205Z,2.0
2017-08-21T09:12:31.878Z,2.9
2017-08-21T09:13:33.559Z,2.6
2017-08-21T09:14:35.239Z,2.4
2017-08-21T09:15:36.932Z,2.5
2017-08-21T09:16:38.616Z,2.2
2017-08-21T09:17:40.320Z,2.0
2017-08-21T09:18:42.001Z,2.0
2017-08-21T09:19:43.682Z,2.4
2017-08-21T09:20:45.367Z,2.1
2017-08-21T09:21:47.051Z,2.1
2017-08-21T09:22:48.731Z,2.0
2017-08-21T09:23:50.424Z,2.1
2017-08-21T09:24:52.107Z,2.2
2017-08-21T09:25:53.848Z,2.4
2017-08-21T09:26:55.524Z,2.4
2017-08-21T09:27:57.213Z,2.1
2017-08-21T09:28:58.891Z,2.3
2017-08-21T09:30:00.577Z,2.4
2017-08-21T09:31:02.256Z,2.2
2017-08-21T09:32:03.937Z,2.1
2017-08-21T09:33:05.625Z,2.2
2017-08-21T09:34:07.306Z,2.1
2017-08-21T09:35:08.994Z,2.1
2017-08-21T09:36:10.676Z,2.1
2017-08-21T09:37:12.362Z,2.1
2017-08-21T09:38:14.053Z,2.3
2017-08-21T09:39:15.732Z,2.0
2017-08-21T09:40:17.408Z,2.2
2017-08-21T09:41:19.097Z,2.2
2017-08-21T09:42:20.781Z,1.9
2017-08-21T09:43:22.458Z,2.1
2017-08-21T09:44:24.145Z,2.1
2017-08-21T09:45:25.823Z,2.1
2017-08-21T09:46:27.502Z,2.1
2017-08-21T09:47:29.189Z,2.2
2017-08-21T09:48:30.863Z,2.0
2017-08-21T09:49:32.550Z,2.2
2017-08-21T09:50:34.230Z,2.2
2017-08-21T09:51:35.923Z,2.0
2017-08-21T09:52:37.621Z,2.1
2017-08-21T09:53:39.301Z,2.0
2017-08-21T09:54:40.983Z,2.0
2017-08-21T10:01:11.260Z,1.4
2017-08-21T10:02:12.986Z,2.0
2017-08-21T10:04:04.865Z,2.4
2017-08-21T10:05:06.554Z,2.1
2017-08-21T10:06:08.248Z,2.2
2017-08-21T10:07:09.930Z,2.4
2017-08-21T10:08:11.611Z,2.3
2017-08-21T10:09:13.290Z,2.4
2017-08-21T10:10:14.982Z,1.9
2017-08-21T10:11:16.683Z,1.9
2017-08-21T10:12:18.363Z,2.2
2017-08-21T10:13:20.034Z,2.3
2017-08-21T10:14:23.330Z,2.4
2017-08-21T10:15:25.621Z,2.4
2017-08-21T10:16:27.305Z,2.2
2017-08-21T10:17:28.990Z,2.2
2017-08-21T10:18:30.687Z,2.1
2017-08-21T10:19:32.358Z,2.0
2017-08-21T10:20:34.042Z,1.9
2017-08-21T10:21:35.753Z,2.0
2017-08-21T10:22:37.415Z,2.0
2017-08-21T10:23:39.154Z,1.8
2017-08-21T10:24:42.429Z,2.4
2017-08-21T10:25:44.115Z,2.2
2017-08-21T10:26:50.954Z,2.0
2017-08-21T10:27:52.645Z,2.2
2017-08-21T10:28:54.330Z,2.0
2017-08-21T10:29:56.017Z,2.0
2017-08-21T10:30:57.708Z,2.3
2017-08-21T10:31:59.374Z,2.5
2017-08-21T10:33:01.062Z,2.5
2017-08-21T10:34:02.744Z,2.3
2017-08-21T10:35:04.414Z,2.3
2017-08-21T10:36:06.097Z,2.2
2017-08-21T10:37:07.783Z,2.5
2017-08-21T10:38:09.466Z,2.0
2017-08-21T10:39:11.153Z,2.0
2017-08-21T10:40:12.843Z,2.3
2017-08-21T10:41:14.533Z,2.6
2017-08-21T10:42:16.205Z,2.2
2017-08-21T10:43:17.890Z,2.0
2017-08-21T10:44:19.569Z,2.3
2017-08-21T10:45:21.252Z,2.7
2017-08-21T10:46:22.928Z,2.0
2017-08-21T10:47:24.620Z,2.1
2017-08-21T10:48:26.299Z,2.2
2017-08-21T10:49:28.003Z,2.1
2017-08-21T10:50:29.694Z,2.4
2017-08-21T10:51:31.368Z,2.4
2017-08-21T10:52:33.044Z,2.2
2017-08-21T10:53:34.724Z,2.1
2017-08-21T10:54:36.404Z,2.3
2017-08-21T10:55:38.168Z,2.0
2017-08-21T10:56:39.896Z,2.2
2017-08-21T10:57:41.575Z,2.1
2017-08-21T10:58:43.259Z,2.2
2017-08-21T10:59:44.938Z,1.8
2017-08-21T11:00:46.626Z,1.9
2017-08-21T11:01:48.321Z,2.0
2017-08-21T11:02:50.026Z,1.8
2017-08-21T11:03:51.694Z,1.7
2017-08-21T11:04:53.384Z,1.9
2017-08-21T11:05:55.069Z,2.1
2017-08-21T11:06:56.748Z,1.9
2017-08-21T11:07:58.426Z,1.9
2017-08-21T11:09:00.112Z,2.2
2017-08-21T11:10:01.772Z,2.0
2017-08-21T11:11:03.455Z,2.2
2017-08-21T11:12:05.130Z,1.9
2017-08-21T11:13:06.818Z,2.2
2017-08-21T11:14:08.510Z,2.1
2017-08-21T11:15:10.182Z,2.0
2017-08-21T11:16:12.062Z,1.8
2017-08-21T11:17:13.898Z,1.9
2017-08-21T11:18:15.584Z,1.9
2017-08-21T11:19:17.266Z,1.8
2017-08-21T11:20:18.939Z,1.5
2017-08-21T11:21:21.682Z,1.6
2017-08-21T11:22:23.368Z,1.9
2017-08-21T11:23:25.055Z,2.0
2017-08-21T11:24:26.735Z,1.8
2017-08-21T11:25:29.987Z,2.5
2017-08-21T11:26:33.940Z,1.9
2017-08-21T11:27:36.447Z,1.8
2017-08-21T11:28:38.126Z,1.9
2017-08-21T11:29:41.950Z,1.9
2017-08-21T11:30:43.785Z,2.4
2017-08-21T11:31:45.459Z,2.2
2017-08-21T11:32:47.146Z,2.1
2017-08-21T11:33:49.671Z,2.0
2017-08-21T11:34:51.359Z,2.5
2017-08-21T11:35:53.045Z,1.8
2017-08-21T11:36:54.744Z,1.8
2017-08-21T11:37:57.555Z,2.1
2017-08-21T11:39:02.247Z,1.9
2017-08-21T11:40:12.227Z,1.7
2017-08-21T11:41:13.754Z,2.0
2017-08-21T11:42:15.465Z,2.1
2017-08-21T11:43:20.599Z,1.9
2017-08-21T11:44:22.303Z,1.8
2017-08-21T11:45:24.082Z,2.3
2017-08-21T11:46:25.831Z,2.0
2017-08-21T11:47:27.547Z,2.4
2017-08-21T11:48:31.137Z,1.7
2017-08-21T11:49:32.999Z,1.9
2017-08-21T11:50:34.796Z,2.0
2017-08-21T11:51:36.543Z,1.9
2017-08-21T11:52:38.333Z,2.5
2017-08-21T11:53:40.066Z,2.0
2017-08-21T11:54:41.803Z,2.1
2017-08-21T11:55:43.571Z,2.1
2017-08-21T11:56:45.397Z,2.0
2017-08-21T11:57:47.188Z,1.9
2017-08-21T12:00:03.700Z,2.0
2017-08-21T12:01:05.498Z,3.4
2017-08-21T12:02:07.206Z,2.3
2017-08-21T12:03:11.873Z,1.9
2017-08-21T12:04:13.626Z,2.1
2017-08-21T12:06:42.112Z,2.2
2017-08-21T12:07:43.917Z,1.9
2017-08-21T12:08:48.247Z,2.0
2017-08-21T12:09:50.011Z,1.7
2017-08-21T12:10:51.749Z,1.9
2017-08-21T12:11:53.503Z,2.3
2017-08-21T12:12:55.243Z,1.7
2017-08-21T12:13:58.129Z,1.7
2017-08-21T12:15:00.092Z,2.1
2017-08-21T12:16:01.862Z,2.2
2017-08-21T12:17:03.600Z,2.5
2017-08-21T12:18:05.350Z,2.4
2017-08-21T12:19:15.426Z,2.7
2017-08-21T12:20:17.222Z,2.3
2017-08-21T12:21:18.959Z,2.2
2017-08-21T12:22:20.709Z,1.8
2017-08-21T12:23:22.437Z,1.9
2017-08-21T12:24:24.434Z,2.1
2017-08-21T12:25:26.090Z,2.0
2017-08-21T12:26:27.826Z,1.9
2017-08-21T12:27:29.893Z,1.8
2017-08-21T12:28:31.635Z,1.4
2017-08-21T12:29:33.392Z,1.9
2017-08-21T12:30:35.197Z,1.8
2017-08-21T12:31:36.930Z,1.8
2017-08-21T12:32:38.689Z,2.2
2017-08-21T12:33:40.471Z,1.8
2017-08-21T12:34:42.274Z,1.9
2017-08-21T12:35:44.098Z,1.8
2017-08-21T12:36:45.934Z,1.9
2017-08-21T12:37:47.741Z,2.1
2017-08-21T12:38:49.488Z,1.9
2017-08-21T12:39:51.263Z,2.3
2017-08-21T12:40:53.016Z,1.9
2017-08-21T12:41:55.078Z,2.4
2017-08-21T12:42:56.815Z,2.2
2017-08-21T12:43:58.606Z,2.1
2017-08-21T12:45:00.416Z,1.9
2017-08-21T12:46:02.155Z,2.0
2017-08-21T12:47:03.887Z,1.9
2017-08-21T12:48:05.829Z,2.4
2017-08-21T12:49:07.787Z,2.2
2017-08-21T12:50:09.633Z,2.1
2017-08-21T12:51:11.628Z,1.9
2017-08-21T12:52:13.432Z,2.1
2017-08-21T12:53:15.257Z,2.0
2017-08-21T12:54:17.383Z,1.8
2017-08-21T12:55:19.024Z,2.3
2017-08-21T12:56:20.761Z,1.9
2017-08-21T12:57:22.485Z,2.2
2017-08-21T12:58:24.207Z,2.3
2017-08-21T12:59:25.883Z,1.9
2017-08-21T13:00:27.581Z,1.9
2017-08-21T13:01:29.287Z,2.0
2017-08-21T13:02:30.974Z,2.0
2017-08-21T13:03:32.659Z,2.0
2017-08-21T13:04:34.364Z,1.8
2017-08-21T13:05:36.070Z,1.9
2017-08-21T13:06:37.782Z,2.3
2017-08-21T13:07:39.460Z,1.8
2017-08-21T13:08:41.152Z,1.8
2017-08-21T13:09:42.830Z,2.2
2017-08-21T13:10:44.516Z,2.1
2017-08-21T13:11:46.234Z,1.9
2017-08-21T13:12:47.975Z,1.9
2017-08-21T13:13:49.842Z,2.2
2017-08-21T13:14:51.665Z,2.0
2017-08-21T13:15:53.398Z,1.9
2017-08-21T13:16:55.082Z,1.9
2017-08-21T13:17:56.774Z,1.9
2017-08-21T13:18:58.497Z,2.2
2017-08-21T13:20:00.449Z,2.3
2017-08-21T13:21:02.564Z,2.0
2017-08-21T13:22:04.557Z,1.9
2017-08-21T13:23:06.430Z,2.0
2017-08-21T13:24:08.172Z,2.3
2017-08-21T13:25:09.898Z,2.2
2017-08-21T13:26:11.579Z,2.0
2017-08-21T13:27:13.402Z,2.0
2017-08-21T13:28:15.106Z,1.8
2017-08-21T13:29:16.984Z,2.5
2017-08-21T13:30:18.969Z,2.2
2017-08-21T13:31:21.253Z,2.0
2017-08-21T13:32:22.907Z,2.4
2017-08-21T13:33:24.781Z,2.5
2017-08-21T13:34:26.753Z,2.1
2017-08-21T13:35:28.648Z,2.8
2017-08-21T13:36:30.438Z,3.2
2017-08-21T13:37:32.373Z,3.2
2017-08-21T13:38:34.382Z,3.6
2017-08-21T13:39:36.592Z,8.1
2017-08-21T13:40:38.605Z,9.7
2017-08-21T13:41:40.998Z,10.3
2017-08-21T13:42:42.651Z,10.1
2017-08-21T13:43:44.710Z,7.3
2017-08-21T13:44:46.666Z,3.2
2017-08-21T13:45:48.960Z,2.8
2017-08-21T13:46:50.869Z,4.4
2017-08-21T13:47:54.006Z,6.9
2017-08-21T13:48:56.176Z,15.9
2017-08-21T13:49:58.288Z,10.6
2017-08-21T13:51:00.168Z,9.5
2017-08-21T13:52:02.241Z,4.8
2017-08-21T13:53:04.129Z,3.3
2017-08-21T13:54:06.168Z,2.3
2017-08-21T13:55:07.968Z,2.2
2017-08-21T13:56:09.959Z,1.8
2017-08-21T14:01:59.976Z,2.2
2017-08-21T14:03:01.659Z,2.6
2017-08-21T14:04:03.345Z,2.7
2017-08-21T14:05:05.158Z,2.5
2017-08-21T14:06:07.047Z,2.6
2017-08-21T14:07:08.987Z,2.7
2017-08-21T14:08:10.585Z,2.4
2017-08-21T14:09:12.235Z,2.3
2017-08-21T14:10:13.928Z,2.2
2017-08-21T14:11:15.752Z,2.2
2017-08-21T14:12:17.424Z,2.5
2017-08-21T14:13:19.091Z,2.6
2017-08-21T14:14:20.944Z,2.3
2017-08-21T14:15:22.656Z,2.1
2017-08-21T14:16:24.638Z,2.2
2017-08-21T14:17:26.341Z,2.3
2017-08-21T14:18:28.100Z,2.3
2017-08-21T14:19:29.862Z,2.4
2017-08-21T14:20:31.572Z,2.4
2017-08-21T14:21:33.456Z,2.6
2017-08-21T14:22:35.339Z,2.5
2017-08-21T14:23:37.178Z,2.1
2017-08-21T14:24:38.859Z,2.3
2017-08-21T14:25:40.527Z,2.5